sensor_id;sensor_type;location;lat;lon;timestamp;temperature;humidity
12504;DHT22;6316;48.118;-1.690;2024-01-30T00:01:16;13.00;99.90
12504;DHT22;6316;48.118;-1.690;2024-01-30T00:03:41;13.00;99.90
12504;DHT22;6316;48.118;-1.690;2024-01-30T00:06:08;13.00;99.90
12504;DHT22;6316;48.118;-1.690;2024-01-30T00:08:34;13.00;99.90
12504;DHT22;6316;48.118;-1.690;2024-01-30T00:10:59;13.00;99.90
12504;DHT22;6316;48.118;-1.690;2024-01-30T00:13:26;13.00;99.90
12504;DHT22;6316;48.118;-1.690;2024-01-30T00:15:52;13.00;99.90
12504;DHT22;6316;48.118;-1.690;2024-01-30T00:18:18;13.00;99.90
12504;DHT22;6316;48.118;-1.690;2024-01-30T00:20:44;13.00;99.90
12504;DHT22;6316;48.118;-1.690;2024-01-30T00:23:09;12.90;99.90
12504;DHT22;6316;48.118;-1.690;2024-01-30T00:25:35;12.90;99.90
12504;DHT22;6316;48.118;-1.690;2024-01-30T00:28:01;12.90;99.90
12504;DHT22;6316;48.118;-1.690;2024-01-30T00:30:26;12.90;99.90
12504;DHT22;6316;48.118;-1.690;2024-01-30T00:32:53;12.90;99.90
12504;DHT22;6316;48.118;-1.690;2024-01-30T00:35:18;12.90;99.90
12504;DHT22;6316;48.118;-1.690;2024-01-30T00:37:44;12.90;99.90
12504;DHT22;6316;48.118;-1.690;2024-01-30T00:40:10;12.90;99.90
12504;DHT22;6316;48.118;-1.690;2024-01-30T00:42:43;12.90;99.90
12504;DHT22;6316;48.118;-1.690;2024-01-30T00:45:14;12.90;99.90
12504;DHT22;6316;48.118;-1.690;2024-01-30T00:47:39;12.90;99.90
12504;DHT22;6316;48.118;-1.690;2024-01-30T00:50:05;12.90;99.90
12504;DHT22;6316;48.118;-1.690;2024-01-30T00:52:31;12.90;99.90
12504;DHT22;6316;48.118;-1.690;2024-01-30T00:54:58;12.90;99.90
12504;DHT22;6316;48.118;-1.690;2024-01-30T00:57:24;12.80;99.90
12504;DHT22;6316;48.118;-1.690;2024-01-30T00:59:49;12.80;99.90
12504;DHT22;6316;48.118;-1.690;2024-01-30T01:02:15;12.80;99.90
12504;DHT22;6316;48.118;-1.690;2024-01-30T01:04:42;12.80;99.90
12504;DHT22;6316;48.118;-1.690;2024-01-30T01:07:08;12.80;99.90
12504;DHT22;6316;48.118;-1.690;2024-01-30T01:09:34;12.80;99.90
12504;DHT22;6316;48.118;-1.690;2024-01-30T01:11:59;12.80;99.90
12504;DHT22;6316;48.118;-1.690;2024-01-30T01:14:25;12.80;99.90
12504;DHT22;6316;48.118;-1.690;2024-01-30T01:16:51;12.80;99.90
12504;DHT22;6316;48.118;-1.690;2024-01-30T01:19:16;12.80;99.90
12504;DHT22;6316;48.118;-1.690;2024-01-30T01:21:42;12.80;99.90
12504;DHT22;6316;48.118;-1.690;2024-01-30T01:24:07;12.80;99.90
12504;DHT22;6316;48.118;-1.690;2024-01-30T01:26:33;12.70;99.90
12504;DHT22;6316;48.118;-1.690;2024-01-30T01:28:59;12.70;99.90
12504;DHT22;6316;48.118;-1.690;2024-01-30T01:31:24;12.70;99.90
12504;DHT22;6316;48.118;-1.690;2024-01-30T01:33:50;12.70;99.90
12504;DHT22;6316;48.118;-1.690;2024-01-30T01:36:16;12.70;99.90
12504;DHT22;6316;48.118;-1.690;2024-01-30T01:38:42;12.60;99.90
12504;DHT22;6316;48.118;-1.690;2024-01-30T01:41:07;12.60;99.90
12504;DHT22;6316;48.118;-1.690;2024-01-30T01:43:33;12.60;99.90
12504;DHT22;6316;48.118;-1.690;2024-01-30T01:45:58;12.60;99.90
12504;DHT22;6316;48.118;-1.690;2024-01-30T01:48:24;12.60;99.90
12504;DHT22;6316;48.118;-1.690;2024-01-30T01:50:51;12.60;99.90
12504;DHT22;6316;48.118;-1.690;2024-01-30T01:53:17;12.60;99.90
12504;DHT22;6316;48.118;-1.690;2024-01-30T01:55:45;12.60;99.90
12504;DHT22;6316;48.118;-1.690;2024-01-30T01:58:11;12.60;99.90
12504;DHT22;6316;48.118;-1.690;2024-01-30T02:00:38;12.60;99.90
12504;DHT22;6316;48.118;-1.690;2024-01-30T02:03:09;12.70;99.90
12504;DHT22;6316;48.118;-1.690;2024-01-30T02:05:36;12.70;99.90
12504;DHT22;6316;48.118;-1.690;2024-01-30T02:08:02;12.70;99.90
12504;DHT22;6316;48.118;-1.690;2024-01-30T02:10:28;12.70;99.90
12504;DHT22;6316;48.118;-1.690;2024-01-30T02:12:54;12.70;99.90
12504;DHT22;6316;48.118;-1.690;2024-01-30T02:15:20;12.70;99.90
12504;DHT22;6316;48.118;-1.690;2024-01-30T02:17:45;12.70;99.90
12504;DHT22;6316;48.118;-1.690;2024-01-30T02:20:11;12.80;99.90
12504;DHT22;6316;48.118;-1.690;2024-01-30T02:22:37;12.70;99.90
12504;DHT22;6316;48.118;-1.690;2024-01-30T02:25:04;12.70;99.90
12504;DHT22;6316;48.118;-1.690;2024-01-30T02:27:29;12.70;99.90
12504;DHT22;6316;48.118;-1.690;2024-01-30T02:29:55;12.70;99.90
12504;DHT22;6316;48.118;-1.690;2024-01-30T02:32:21;12.70;99.90
12504;DHT22;6316;48.118;-1.690;2024-01-30T02:34:46;12.70;99.90
12504;DHT22;6316;48.118;-1.690;2024-01-30T02:37:12;12.70;99.90
12504;DHT22;6316;48.118;-1.690;2024-01-30T02:39:38;12.70;99.90
12504;DHT22;6316;48.118;-1.690;2024-01-30T02:42:03;12.70;99.90
12504;DHT22;6316;48.118;-1.690;2024-01-30T02:44:29;12.70;99.90
12504;DHT22;6316;48.118;-1.690;2024-01-30T02:46:55;12.60;99.90
12504;DHT22;6316;48.118;-1.690;2024-01-30T02:49:20;12.60;99.90
12504;DHT22;6316;48.118;-1.690;2024-01-30T02:51:46;12.60;99.90
12504;DHT22;6316;48.118;-1.690;2024-01-30T02:54:12;12.60;99.90
12504;DHT22;6316;48.118;-1.690;2024-01-30T02:56:37;12.60;99.90
12504;DHT22;6316;48.118;-1.690;2024-01-30T02:59:03;12.50;99.90
12504;DHT22;6316;48.118;-1.690;2024-01-30T03:01:29;12.50;99.90
12504;DHT22;6316;48.118;-1.690;2024-01-30T03:03:54;12.50;99.90
12504;DHT22;6316;48.118;-1.690;2024-01-30T03:06:20;12.50;99.90
12504;DHT22;6316;48.118;-1.690;2024-01-30T03:08:47;12.40;99.90
12504;DHT22;6316;48.118;-1.690;2024-01-30T03:11:12;12.40;99.90
12504;DHT22;6316;48.118;-1.690;2024-01-30T03:13:38;12.40;99.90
12504;DHT22;6316;48.118;-1.690;2024-01-30T03:16:04;12.30;99.90
12504;DHT22;6316;48.118;-1.690;2024-01-30T03:18:29;12.20;99.90
12504;DHT22;6316;48.118;-1.690;2024-01-30T03:20:55;12.10;99.90
12504;DHT22;6316;48.118;-1.690;2024-01-30T03:23:21;12.10;99.90
12504;DHT22;6316;48.118;-1.690;2024-01-30T03:25:46;12.00;99.90
12504;DHT22;6316;48.118;-1.690;2024-01-30T03:28:12;12.00;99.90
12504;DHT22;6316;48.118;-1.690;2024-01-30T03:30:37;12.00;99.90
12504;DHT22;6316;48.118;-1.690;2024-01-30T03:33:03;12.00;99.90
12504;DHT22;6316;48.118;-1.690;2024-01-30T03:35:29;12.00;99.90
12504;DHT22;6316;48.118;-1.690;2024-01-30T03:37:54;12.00;99.90
12504;DHT22;6316;48.118;-1.690;2024-01-30T03:40:20;12.00;99.90
12504;DHT22;6316;48.118;-1.690;2024-01-30T03:42:46;12.10;99.90
12504;DHT22;6316;48.118;-1.690;2024-01-30T03:45:11;12.10;99.90
12504;DHT22;6316;48.118;-1.690;2024-01-30T03:47:37;12.10;99.90
12504;DHT22;6316;48.118;-1.690;2024-01-30T03:50:03;12.10;99.90
12504;DHT22;6316;48.118;-1.690;2024-01-30T03:52:30;12.10;99.90
12504;DHT22;6316;48.118;-1.690;2024-01-30T03:54:55;12.10;99.90
12504;DHT22;6316;48.118;-1.690;2024-01-30T03:57:21;12.20;99.90
12504;DHT22;6316;48.118;-1.690;2024-01-30T03:59:47;12.20;99.90
12504;DHT22;6316;48.118;-1.690;2024-01-30T04:02:13;12.20;99.90
12504;DHT22;6316;48.118;-1.690;2024-01-30T04:04:38;12.20;99.90
12504;DHT22;6316;48.118;-1.690;2024-01-30T04:07:04;12.20;99.90
12504;DHT22;6316;48.118;-1.690;2024-01-30T04:09:30;12.20;99.90
12504;DHT22;6316;48.118;-1.690;2024-01-30T04:11:55;12.20;99.90
12504;DHT22;6316;48.118;-1.690;2024-01-30T04:14:21;12.20;99.90
12504;DHT22;6316;48.118;-1.690;2024-01-30T04:16:47;12.20;99.90
12504;DHT22;6316;48.118;-1.690;2024-01-30T04:19:12;12.20;99.90
12504;DHT22;6316;48.118;-1.690;2024-01-30T04:21:38;12.20;99.90
12504;DHT22;6316;48.118;-1.690;2024-01-30T04:24:04;12.20;99.90
12504;DHT22;6316;48.118;-1.690;2024-01-30T04:26:29;12.20;99.90
12504;DHT22;6316;48.118;-1.690;2024-01-30T04:28:55;12.20;99.90
12504;DHT22;6316;48.118;-1.690;2024-01-30T04:31:21;12.10;99.90
12504;DHT22;6316;48.118;-1.690;2024-01-30T04:33:46;12.10;99.90
12504;DHT22;6316;48.118;-1.690;2024-01-30T04:36:12;12.10;99.90
12504;DHT22;6316;48.118;-1.690;2024-01-30T04:38:41;12.10;99.90
12504;DHT22;6316;48.118;-1.690;2024-01-30T04:41:07;12.10;99.90
12504;DHT22;6316;48.118;-1.690;2024-01-30T04:43:33;12.10;99.90
12504;DHT22;6316;48.118;-1.690;2024-01-30T04:45:58;12.10;99.90
12504;DHT22;6316;48.118;-1.690;2024-01-30T04:48:24;12.10;99.90
12504;DHT22;6316;48.118;-1.690;2024-01-30T04:50:50;12.00;99.90
12504;DHT22;6316;48.118;-1.690;2024-01-30T04:53:15;12.00;99.90
12504;DHT22;6316;48.118;-1.690;2024-01-30T04:55:41;12.00;99.90
12504;DHT22;6316;48.118;-1.690;2024-01-30T04:58:06;12.00;99.90
12504;DHT22;6316;48.118;-1.690;2024-01-30T05:00:32;12.00;99.90
12504;DHT22;6316;48.118;-1.690;2024-01-30T05:02:57;12.00;99.90
12504;DHT22;6316;48.118;-1.690;2024-01-30T05:05:23;12.00;99.90
12504;DHT22;6316;48.118;-1.690;2024-01-30T05:07:49;12.00;99.90
12504;DHT22;6316;48.118;-1.690;2024-01-30T05:10:14;12.00;99.90
12504;DHT22;6316;48.118;-1.690;2024-01-30T05:12:40;12.00;99.90
12504;DHT22;6316;48.118;-1.690;2024-01-30T05:15:06;11.90;99.90
12504;DHT22;6316;48.118;-1.690;2024-01-30T05:17:32;11.90;99.90
12504;DHT22;6316;48.118;-1.690;2024-01-30T05:19:58;11.90;99.90
12504;DHT22;6316;48.118;-1.690;2024-01-30T05:22:25;11.90;99.90
12504;DHT22;6316;48.118;-1.690;2024-01-30T05:24:51;11.90;99.90
12504;DHT22;6316;48.118;-1.690;2024-01-30T05:27:16;11.90;99.90
12504;DHT22;6316;48.118;-1.690;2024-01-30T05:29:42;11.90;99.90
12504;DHT22;6316;48.118;-1.690;2024-01-30T05:32:07;11.80;99.90
12504;DHT22;6316;48.118;-1.690;2024-01-30T05:34:34;11.80;99.90
12504;DHT22;6316;48.118;-1.690;2024-01-30T05:36:59;11.80;99.90
12504;DHT22;6316;48.118;-1.690;2024-01-30T05:39:25;11.80;99.90
12504;DHT22;6316;48.118;-1.690;2024-01-30T05:41:50;11.70;99.90
12504;DHT22;6316;48.118;-1.690;2024-01-30T05:44:16;11.70;99.90
12504;DHT22;6316;48.118;-1.690;2024-01-30T05:46:42;11.70;99.90
12504;DHT22;6316;48.118;-1.690;2024-01-30T05:49:07;11.70;99.90
12504;DHT22;6316;48.118;-1.690;2024-01-30T05:51:33;11.70;99.90
12504;DHT22;6316;48.118;-1.690;2024-01-30T05:53:58;11.70;99.90
12504;DHT22;6316;48.118;-1.690;2024-01-30T05:56:24;11.70;99.90
12504;DHT22;6316;48.118;-1.690;2024-01-30T05:58:50;11.60;99.90
12504;DHT22;6316;48.118;-1.690;2024-01-30T06:01:16;11.60;99.90
12504;DHT22;6316;48.118;-1.690;2024-01-30T06:03:42;11.60;99.90
12504;DHT22;6316;48.118;-1.690;2024-01-30T06:06:09;11.60;99.90
12504;DHT22;6316;48.118;-1.690;2024-01-30T06:08:34;11.60;99.90
12504;DHT22;6316;48.118;-1.690;2024-01-30T06:11:00;11.50;99.90
12504;DHT22;6316;48.118;-1.690;2024-01-30T06:13:26;11.50;99.90
12504;DHT22;6316;48.118;-1.690;2024-01-30T06:15:52;11.50;99.90
12504;DHT22;6316;48.118;-1.690;2024-01-30T06:18:18;11.40;99.90
12504;DHT22;6316;48.118;-1.690;2024-01-30T06:20:43;11.40;99.90
12504;DHT22;6316;48.118;-1.690;2024-01-30T06:23:09;11.30;99.90
12504;DHT22;6316;48.118;-1.690;2024-01-30T06:25:35;11.20;99.90
12504;DHT22;6316;48.118;-1.690;2024-01-30T06:28:01;11.10;99.90
12504;DHT22;6316;48.118;-1.690;2024-01-30T06:30:26;11.10;99.90
12504;DHT22;6316;48.118;-1.690;2024-01-30T06:32:52;11.00;99.90
12504;DHT22;6316;48.118;-1.690;2024-01-30T06:35:18;10.90;99.90
12504;DHT22;6316;48.118;-1.690;2024-01-30T06:37:43;10.80;99.90
12504;DHT22;6316;48.118;-1.690;2024-01-30T06:40:09;10.80;99.90
12504;DHT22;6316;48.118;-1.690;2024-01-30T06:42:35;10.70;99.90
12504;DHT22;6316;48.118;-1.690;2024-01-30T06:45:00;10.60;99.90
12504;DHT22;6316;48.118;-1.690;2024-01-30T06:47:26;10.60;99.90
12504;DHT22;6316;48.118;-1.690;2024-01-30T06:49:52;10.50;99.90
12504;DHT22;6316;48.118;-1.690;2024-01-30T06:52:17;10.40;99.90
12504;DHT22;6316;48.118;-1.690;2024-01-30T06:54:43;10.40;99.90
12504;DHT22;6316;48.118;-1.690;2024-01-30T06:57:09;10.30;99.90
12504;DHT22;6316;48.118;-1.690;2024-01-30T06:59:37;10.30;99.90
12504;DHT22;6316;48.118;-1.690;2024-01-30T07:02:09;10.30;99.90
12504;DHT22;6316;48.118;-1.690;2024-01-30T07:04:34;10.20;99.90
12504;DHT22;6316;48.118;-1.690;2024-01-30T07:07:00;10.20;99.90
12504;DHT22;6316;48.118;-1.690;2024-01-30T07:09:26;10.10;99.90
12504;DHT22;6316;48.118;-1.690;2024-01-30T07:12:14;10.00;99.90
12504;DHT22;6316;48.118;-1.690;2024-01-30T07:14:39;10.00;99.90
12504;DHT22;6316;48.118;-1.690;2024-01-30T07:17:05;10.00;99.90
12504;DHT22;6316;48.118;-1.690;2024-01-30T07:22:47;9.90;99.90
12504;DHT22;6316;48.118;-1.690;2024-01-30T07:25:13;9.80;99.90
12504;DHT22;6316;48.118;-1.690;2024-01-30T07:27:38;9.80;99.90
12504;DHT22;6316;48.118;-1.690;2024-01-30T07:30:05;9.80;99.90
12504;DHT22;6316;48.118;-1.690;2024-01-30T07:32:30;9.80;99.90
12504;DHT22;6316;48.118;-1.690;2024-01-30T07:34:57;9.70;99.90
12504;DHT22;6316;48.118;-1.690;2024-01-30T07:37:22;9.70;99.90
12504;DHT22;6316;48.118;-1.690;2024-01-30T07:39:48;9.70;99.90
12504;DHT22;6316;48.118;-1.690;2024-01-30T07:42:14;9.70;99.90
12504;DHT22;6316;48.118;-1.690;2024-01-30T07:44:39;9.70;99.90
12504;DHT22;6316;48.118;-1.690;2024-01-30T07:47:05;9.70;99.90
12504;DHT22;6316;48.118;-1.690;2024-01-30T07:49:31;9.70;99.90
12504;DHT22;6316;48.118;-1.690;2024-01-30T07:51:56;9.80;99.90
12504;DHT22;6316;48.118;-1.690;2024-01-30T07:54:22;9.80;99.90
12504;DHT22;6316;48.118;-1.690;2024-01-30T07:56:48;9.90;99.90
12504;DHT22;6316;48.118;-1.690;2024-01-30T07:59:14;9.90;99.90
12504;DHT22;6316;48.118;-1.690;2024-01-30T08:01:40;10.00;99.90
12504;DHT22;6316;48.118;-1.690;2024-01-30T08:04:05;9.90;99.90
12504;DHT22;6316;48.118;-1.690;2024-01-30T08:06:31;10.00;99.90
12504;DHT22;6316;48.118;-1.690;2024-01-30T08:08:57;10.00;99.90
12504;DHT22;6316;48.118;-1.690;2024-01-30T08:11:24;10.00;99.90
12504;DHT22;6316;48.118;-1.690;2024-01-30T08:13:54;10.00;99.90
12504;DHT22;6316;48.118;-1.690;2024-01-30T08:16:20;10.10;99.90
12504;DHT22;6316;48.118;-1.690;2024-01-30T08:18:46;10.00;99.90
12504;DHT22;6316;48.118;-1.690;2024-01-30T08:21:11;10.00;99.90
12504;DHT22;6316;48.118;-1.690;2024-01-30T08:23:38;10.00;99.90
12504;DHT22;6316;48.118;-1.690;2024-01-30T08:26:05;9.90;99.90
12504;DHT22;6316;48.118;-1.690;2024-01-30T08:28:31;9.90;99.90
12504;DHT22;6316;48.118;-1.690;2024-01-30T08:30:56;9.90;99.90
12504;DHT22;6316;48.118;-1.690;2024-01-30T08:33:22;9.80;99.90
12504;DHT22;6316;48.118;-1.690;2024-01-30T08:35:48;9.80;99.90
12504;DHT22;6316;48.118;-1.690;2024-01-30T08:38:14;9.80;99.90
12504;DHT22;6316;48.118;-1.690;2024-01-30T08:40:39;9.80;99.90
12504;DHT22;6316;48.118;-1.690;2024-01-30T08:43:05;9.80;99.90
12504;DHT22;6316;48.118;-1.690;2024-01-30T08:45:30;9.90;99.90
12504;DHT22;6316;48.118;-1.690;2024-01-30T08:47:56;9.90;99.90
12504;DHT22;6316;48.118;-1.690;2024-01-30T08:50:22;9.80;99.90
12504;DHT22;6316;48.118;-1.690;2024-01-30T08:52:48;9.90;99.90
12504;DHT22;6316;48.118;-1.690;2024-01-30T08:55:14;9.90;99.90
12504;DHT22;6316;48.118;-1.690;2024-01-30T08:57:43;9.90;99.90
12504;DHT22;6316;48.118;-1.690;2024-01-30T09:00:09;10.00;99.90
12504;DHT22;6316;48.118;-1.690;2024-01-30T09:02:37;10.00;99.90
12504;DHT22;6316;48.118;-1.690;2024-01-30T09:05:04;10.00;99.90
12504;DHT22;6316;48.118;-1.690;2024-01-30T09:07:30;10.00;99.90
12504;DHT22;6316;48.118;-1.690;2024-01-30T09:09:56;10.00;99.90
12504;DHT22;6316;48.118;-1.690;2024-01-30T09:12:21;10.00;99.90
12504;DHT22;6316;48.118;-1.690;2024-01-30T09:14:47;10.10;99.90
12504;DHT22;6316;48.118;-1.690;2024-01-30T09:17:13;10.10;99.90
12504;DHT22;6316;48.118;-1.690;2024-01-30T09:19:38;10.10;99.90
12504;DHT22;6316;48.118;-1.690;2024-01-30T09:22:04;10.10;99.90
12504;DHT22;6316;48.118;-1.690;2024-01-30T09:24:30;10.10;99.90
12504;DHT22;6316;48.118;-1.690;2024-01-30T09:26:55;10.10;99.90
12504;DHT22;6316;48.118;-1.690;2024-01-30T09:29:21;10.20;99.90
12504;DHT22;6316;48.118;-1.690;2024-01-30T09:31:47;10.20;99.90
12504;DHT22;6316;48.118;-1.690;2024-01-30T09:34:13;10.20;99.90
12504;DHT22;6316;48.118;-1.690;2024-01-30T09:36:39;10.20;99.90
12504;DHT22;6316;48.118;-1.690;2024-01-30T09:39:05;10.20;99.90
12504;DHT22;6316;48.118;-1.690;2024-01-30T09:41:48;10.20;99.90
12504;DHT22;6316;48.118;-1.690;2024-01-30T09:44:16;10.30;99.90
12504;DHT22;6316;48.118;-1.690;2024-01-30T09:46:42;10.30;99.90
12504;DHT22;6316;48.118;-1.690;2024-01-30T09:49:09;10.30;99.90
12504;DHT22;6316;48.118;-1.690;2024-01-30T09:51:35;10.30;99.90
12504;DHT22;6316;48.118;-1.690;2024-01-30T09:54:02;10.40;99.90
12504;DHT22;6316;48.118;-1.690;2024-01-30T09:56:28;10.40;99.90
12504;DHT22;6316;48.118;-1.690;2024-01-30T09:58:54;10.40;99.90
12504;DHT22;6316;48.118;-1.690;2024-01-30T10:01:20;10.50;99.90
12504;DHT22;6316;48.118;-1.690;2024-01-30T10:03:46;10.50;99.90
12504;DHT22;6316;48.118;-1.690;2024-01-30T10:06:11;10.50;99.90
12504;DHT22;6316;48.118;-1.690;2024-01-30T10:08:37;10.50;99.90
12504;DHT22;6316;48.118;-1.690;2024-01-30T10:11:03;10.60;99.90
12504;DHT22;6316;48.118;-1.690;2024-01-30T10:13:29;10.60;99.90
12504;DHT22;6316;48.118;-1.690;2024-01-30T10:15:55;10.60;99.90
12504;DHT22;6316;48.118;-1.690;2024-01-30T10:18:22;10.70;99.90
12504;DHT22;6316;48.118;-1.690;2024-01-30T10:20:49;10.70;99.90
12504;DHT22;6316;48.118;-1.690;2024-01-30T10:23:14;10.80;99.90
12504;DHT22;6316;48.118;-1.690;2024-01-30T10:25:40;10.80;99.90
12504;DHT22;6316;48.118;-1.690;2024-01-30T10:28:06;10.90;99.90
12504;DHT22;6316;48.118;-1.690;2024-01-30T10:30:31;10.90;99.90
12504;DHT22;6316;48.118;-1.690;2024-01-30T10:32:57;10.90;99.90
12504;DHT22;6316;48.118;-1.690;2024-01-30T10:35:23;11.00;99.90
12504;DHT22;6316;48.118;-1.690;2024-01-30T10:37:49;11.00;99.90
12504;DHT22;6316;48.118;-1.690;2024-01-30T10:40:15;11.00;99.90
12504;DHT22;6316;48.118;-1.690;2024-01-30T10:42:45;11.00;99.90
12504;DHT22;6316;48.118;-1.690;2024-01-30T10:45:14;11.10;99.90
12504;DHT22;6316;48.118;-1.690;2024-01-30T10:47:49;11.10;99.90
12504;DHT22;6316;48.118;-1.690;2024-01-30T10:50:15;11.20;99.90
12504;DHT22;6316;48.118;-1.690;2024-01-30T10:52:42;11.20;99.90
12504;DHT22;6316;48.118;-1.690;2024-01-30T10:55:09;11.20;99.90
12504;DHT22;6316;48.118;-1.690;2024-01-30T10:57:36;11.30;99.90
12504;DHT22;6316;48.118;-1.690;2024-01-30T11:00:07;11.30;99.90
12504;DHT22;6316;48.118;-1.690;2024-01-30T11:02:38;11.40;99.90
12504;DHT22;6316;48.118;-1.690;2024-01-30T11:05:05;11.40;99.90
12504;DHT22;6316;48.118;-1.690;2024-01-30T11:07:31;11.50;99.90
12504;DHT22;6316;48.118;-1.690;2024-01-30T11:10:03;11.60;99.90
12504;DHT22;6316;48.118;-1.690;2024-01-30T11:12:31;11.60;99.90
12504;DHT22;6316;48.118;-1.690;2024-01-30T11:15:17;11.70;99.90
12504;DHT22;6316;48.118;-1.690;2024-01-30T11:20:18;12.00;99.90
12504;DHT22;6316;48.118;-1.690;2024-01-30T11:22:46;12.10;99.90
12504;DHT22;6316;48.118;-1.690;2024-01-30T11:25:15;12.20;99.90
12504;DHT22;6316;48.118;-1.690;2024-01-30T11:27:43;12.30;99.90
12504;DHT22;6316;48.118;-1.690;2024-01-30T11:30:09;12.40;99.90
12504;DHT22;6316;48.118;-1.690;2024-01-30T11:32:35;12.40;99.90
12504;DHT22;6316;48.118;-1.690;2024-01-30T11:35:03;12.30;99.90
12504;DHT22;6316;48.118;-1.690;2024-01-30T11:37:31;12.20;99.90
12504;DHT22;6316;48.118;-1.690;2024-01-30T11:39:57;12.10;99.90
12504;DHT22;6316;48.118;-1.690;2024-01-30T11:42:23;12.10;99.90
12504;DHT22;6316;48.118;-1.690;2024-01-30T11:44:52;12.00;99.90
12504;DHT22;6316;48.118;-1.690;2024-01-30T11:47:17;11.90;99.90
12504;DHT22;6316;48.118;-1.690;2024-01-30T11:49:43;11.80;99.90
12504;DHT22;6316;48.118;-1.690;2024-01-30T11:52:09;11.70;99.90
12504;DHT22;6316;48.118;-1.690;2024-01-30T11:54:35;11.70;99.90
12504;DHT22;6316;48.118;-1.690;2024-01-30T11:57:01;11.70;99.90
12504;DHT22;6316;48.118;-1.690;2024-01-30T11:59:27;11.70;99.90
12504;DHT22;6316;48.118;-1.690;2024-01-30T12:01:52;11.80;99.90
12504;DHT22;6316;48.118;-1.690;2024-01-30T12:04:18;12.00;99.90
12504;DHT22;6316;48.118;-1.690;2024-01-30T12:06:44;12.20;99.90
12504;DHT22;6316;48.118;-1.690;2024-01-30T12:09:10;12.30;99.90
12504;DHT22;6316;48.118;-1.690;2024-01-30T12:11:48;12.30;99.90
12504;DHT22;6316;48.118;-1.690;2024-01-30T12:14:14;12.40;99.90
12504;DHT22;6316;48.118;-1.690;2024-01-30T12:16:40;12.30;99.90
12504;DHT22;6316;48.118;-1.690;2024-01-30T12:19:07;12.40;99.90
12504;DHT22;6316;48.118;-1.690;2024-01-30T12:21:34;12.30;99.90
12504;DHT22;6316;48.118;-1.690;2024-01-30T12:24:00;12.30;99.90
12504;DHT22;6316;48.118;-1.690;2024-01-30T12:26:26;12.30;99.90
12504;DHT22;6316;48.118;-1.690;2024-01-30T12:28:56;12.20;99.90
12504;DHT22;6316;48.118;-1.690;2024-01-30T12:31:31;12.20;99.90
12504;DHT22;6316;48.118;-1.690;2024-01-30T12:33:59;12.20;99.90
12504;DHT22;6316;48.118;-1.690;2024-01-30T12:36:25;12.10;99.90
12504;DHT22;6316;48.118;-1.690;2024-01-30T12:38:51;12.20;99.90
12504;DHT22;6316;48.118;-1.690;2024-01-30T12:41:17;12.20;99.90
12504;DHT22;6316;48.118;-1.690;2024-01-30T12:43:44;12.10;99.90
12504;DHT22;6316;48.118;-1.690;2024-01-30T12:46:10;12.20;99.90
12504;DHT22;6316;48.118;-1.690;2024-01-30T12:48:35;12.20;99.90
12504;DHT22;6316;48.118;-1.690;2024-01-30T12:51:01;12.30;99.90
12504;DHT22;6316;48.118;-1.690;2024-01-30T12:53:27;12.40;99.90
12504;DHT22;6316;48.118;-1.690;2024-01-30T12:55:52;12.60;99.90
12504;DHT22;6316;48.118;-1.690;2024-01-30T12:58:19;12.70;99.90
12504;DHT22;6316;48.118;-1.690;2024-01-30T13:00:45;12.80;99.90
12504;DHT22;6316;48.118;-1.690;2024-01-30T13:03:12;12.80;99.90
12504;DHT22;6316;48.118;-1.690;2024-01-30T13:05:38;12.80;99.90
12504;DHT22;6316;48.118;-1.690;2024-01-30T13:08:04;12.70;99.90
12504;DHT22;6316;48.118;-1.690;2024-01-30T13:10:29;12.70;99.90
12504;DHT22;6316;48.118;-1.690;2024-01-30T13:12:55;12.70;99.90
12504;DHT22;6316;48.118;-1.690;2024-01-30T13:15:21;12.70;99.90
12504;DHT22;6316;48.118;-1.690;2024-01-30T13:17:48;12.70;99.90
12504;DHT22;6316;48.118;-1.690;2024-01-30T13:20:15;12.70;99.90
12504;DHT22;6316;48.118;-1.690;2024-01-30T13:22:44;12.90;99.90
12504;DHT22;6316;48.118;-1.690;2024-01-30T13:25:10;13.00;99.90
12504;DHT22;6316;48.118;-1.690;2024-01-30T13:27:37;13.10;99.90
12504;DHT22;6316;48.118;-1.690;2024-01-30T13:30:03;13.20;99.90
12504;DHT22;6316;48.118;-1.690;2024-01-30T13:32:29;13.20;99.90
12504;DHT22;6316;48.118;-1.690;2024-01-30T13:34:55;13.20;99.90
12504;DHT22;6316;48.118;-1.690;2024-01-30T13:37:21;13.20;99.90
12504;DHT22;6316;48.118;-1.690;2024-01-30T13:39:47;13.20;99.90
12504;DHT22;6316;48.118;-1.690;2024-01-30T13:42:12;13.20;99.90
12504;DHT22;6316;48.118;-1.690;2024-01-30T13:44:38;13.20;99.90
12504;DHT22;6316;48.118;-1.690;2024-01-30T13:47:03;13.10;99.90
12504;DHT22;6316;48.118;-1.690;2024-01-30T13:49:29;13.00;99.90
12504;DHT22;6316;48.118;-1.690;2024-01-30T13:51:55;12.90;99.90
12504;DHT22;6316;48.118;-1.690;2024-01-30T13:54:20;12.80;99.90
12504;DHT22;6316;48.118;-1.690;2024-01-30T13:56:46;12.80;99.90
12504;DHT22;6316;48.118;-1.690;2024-01-30T13:59:12;12.70;99.90
12504;DHT22;6316;48.118;-1.690;2024-01-30T14:01:37;12.80;99.90
12504;DHT22;6316;48.118;-1.690;2024-01-30T14:04:03;12.80;99.90
12504;DHT22;6316;48.118;-1.690;2024-01-30T14:06:29;12.90;99.90
12504;DHT22;6316;48.118;-1.690;2024-01-30T14:08:54;12.90;99.90
12504;DHT22;6316;48.118;-1.690;2024-01-30T14:11:20;12.90;99.90
12504;DHT22;6316;48.118;-1.690;2024-01-30T14:13:46;13.00;99.90
12504;DHT22;6316;48.118;-1.690;2024-01-30T14:16:12;13.00;99.90
12504;DHT22;6316;48.118;-1.690;2024-01-30T14:18:37;13.10;99.90
12504;DHT22;6316;48.118;-1.690;2024-01-30T14:21:03;13.10;99.90
12504;DHT22;6316;48.118;-1.690;2024-01-30T14:23:28;13.10;99.90
12504;DHT22;6316;48.118;-1.690;2024-01-30T14:25:54;13.20;99.90
12504;DHT22;6316;48.118;-1.690;2024-01-30T14:28:20;13.30;99.90
12504;DHT22;6316;48.118;-1.690;2024-01-30T14:30:45;13.30;99.90
12504;DHT22;6316;48.118;-1.690;2024-01-30T14:33:11;13.40;99.90
12504;DHT22;6316;48.118;-1.690;2024-01-30T14:35:37;13.30;99.90
12504;DHT22;6316;48.118;-1.690;2024-01-30T14:38:03;13.30;99.90
12504;DHT22;6316;48.118;-1.690;2024-01-30T14:40:30;13.20;99.90
12504;DHT22;6316;48.118;-1.690;2024-01-30T14:42:56;13.20;99.90
12504;DHT22;6316;48.118;-1.690;2024-01-30T14:45:21;13.10;99.90
12504;DHT22;6316;48.118;-1.690;2024-01-30T14:47:47;13.10;99.90
12504;DHT22;6316;48.118;-1.690;2024-01-30T14:50:13;13.00;99.90
12504;DHT22;6316;48.118;-1.690;2024-01-30T14:52:39;13.00;99.90
12504;DHT22;6316;48.118;-1.690;2024-01-30T14:55:06;12.90;99.90
12504;DHT22;6316;48.118;-1.690;2024-01-30T14:57:31;12.90;99.90
12504;DHT22;6316;48.118;-1.690;2024-01-30T14:59:57;12.90;99.90
12504;DHT22;6316;48.118;-1.690;2024-01-30T15:02:23;12.80;99.90
12504;DHT22;6316;48.118;-1.690;2024-01-30T15:04:48;12.80;99.90
12504;DHT22;6316;48.118;-1.690;2024-01-30T15:07:14;12.80;99.90
12504;DHT22;6316;48.118;-1.690;2024-01-30T15:09:40;12.80;99.90
12504;DHT22;6316;48.118;-1.690;2024-01-30T15:12:05;12.80;99.90
12504;DHT22;6316;48.118;-1.690;2024-01-30T15:14:31;12.70;99.90
12504;DHT22;6316;48.118;-1.690;2024-01-30T15:16:57;12.70;99.90
12504;DHT22;6316;48.118;-1.690;2024-01-30T15:19:22;12.70;99.90
12504;DHT22;6316;48.118;-1.690;2024-01-30T15:21:48;12.60;99.90
12504;DHT22;6316;48.118;-1.690;2024-01-30T15:24:13;12.60;99.90
12504;DHT22;6316;48.118;-1.690;2024-01-30T15:26:41;12.60;99.90
12504;DHT22;6316;48.118;-1.690;2024-01-30T15:29:07;12.60;99.90
12504;DHT22;6316;48.118;-1.690;2024-01-30T15:31:33;12.50;99.90